Stretford, United Kingdom
Current Conditions -  °F | °C
As of 8:20 PM on Wednesday 26 Nov 2014 (Local Time) from EGCC Reporting Station
Scattered Clouds Scattered Clouds  
Wind Chill: 45°   Ceiling: Unl
Heat Index: 45°   Visibility: 4mi
Dew Point: 43°   Wind: 3mph
Humidity: 93%   Direction: 50°NE
Pressure: 29.8"   Gusts: NA
Location:  53.44°N, 2.32°W
Report Text: EGCC 262020Z 05003KT 7000 SCT044 07/06 Q1009 NOSIG
Loading
Personal Weather Stations






























Interactive Weather Map New forecast layout! Learn more

10-Day Weather Forecast

Advertisements
Track Severe Weather on mobile